Time,TemperatureF,DewpointF,PressureIn,WindDirection,WindDirectionDegrees,WindSpeedMPH,WindSpeedGustMPH,Humidity,HourlyPrecipIn,Conditions,Clouds,dailyrainin,SoftwareType,DateUTC
2013-04-26 00:05:00,68.2,60.7,30.23,West,263,0.0,0.0,77,0.00,,,0.00,Wunderground v.1.15,2013-04-26 04:05:00,
2013-04-26 00:10:00,68.1,61.0,30.23,West,263,0.0,0.0,78,0.00,,,0.00,Wunderground v.1.15,2013-04-26 04:10:00,
2013-04-26 00:15:00,67.9,61.1,30.23,West,263,0.0,0.0,79,0.00,,,0.00,Wunderground v.1.15,2013-04-26 04:15:00,
2013-04-26 00:20:00,67.8,61.4,30.23,West,263,0.0,0.0,80,0.00,,,0.00,Wunderground v.1.15,2013-04-26 04:20:00,
2013-04-26 00:25:00,67.7,61.3,30.23,West,263,0.0,0.0,80,0.00,,,0.00,Wunderground v.1.15,2013-04-26 04:25:00,
2013-04-26 00:30:00,67.6,61.2,30.23,West,263,0.0,0.0,80,0.00,,,0.00,Wunderground v.1.15,2013-04-26 04:30:00,
2013-04-26 00:35:00,67.5,61.1,30.23,West,263,0.0,0.0,80,0.00,,,0.00,Wunderground v.1.15,2013-04-26 04:35:00,
2013-04-26 00:40:00,67.4,61.4,30.23,West,263,0.0,0.0,81,0.00,,,0.00,Wunderground v.1.15,2013-04-26 04:40:00,
2013-04-26 00:45:00,67.3,61.3,30.23,West,263,0.0,0.0,81,0.00,,,0.00,Wunderground v.1.15,2013-04-26 04:45:00,
2013-04-26 00:55:00,67.0,61.0,30.23,West,263,0.0,0.0,81,0.00,,,0.00,Wunderground v.1.15,2013-04-26 04:55:00,
2013-04-26 01:00:00,66.9,60.9,30.23,West,263,0.0,0.0,81,0.00,,,0.00,Wunderground v.1.15,2013-04-26 05:00:00,
2013-04-26 01:10:00,66.7,61.0,30.23,West,263,0.0,0.0,82,0.00,,,0.00,Wunderground v.1.15,2013-04-26 05:10:00,
2013-04-26 01:15:00,66.6,60.9,30.23,West,263,0.0,0.0,82,0.00,,,0.00,Wunderground v.1.15,2013-04-26 05:15:00,
2013-04-26 01:20:00,66.5,61.2,30.23,West,263,0.0,0.0,83,0.00,,,0.00,Wunderground v.1.15,2013-04-26 05:20:00,
2013-04-26 01:25:00,66.5,61.2,30.23,West,263,0.0,0.0,83,0.00,,,0.00,Wunderground v.1.15,2013-04-26 05:25:00,
2013-04-26 01:30:00,66.4,61.1,30.23,West,263,0.0,0.0,83,0.00,,,0.00,Wunderground v.1.15,2013-04-26 05:30:00,
2013-04-26 01:35:00,66.4,61.4,30.23,West,263,0.0,0.0,84,0.00,,,0.00,Wunderground v.1.15,2013-04-26 05:35:00,
2013-04-26 01:40:00,66.3,61.3,30.22,West,263,0.0,0.0,84,0.00,,,0.00,Wunderground v.1.15,2013-04-26 05:40:00,
2013-04-26 01:50:00,66.0,61.0,30.22,West,263,0.0,0.0,84,0.00,,,0.00,Wunderground v.1.15,2013-04-26 05:50:00,
2013-04-26 01:55:00,65.9,60.9,30.21,West,263,0.0,0.0,84,0.00,,,0.00,Wunderground v.1.15,2013-04-26 05:55:00,
2013-04-26 02:05:00,65.6,60.6,30.21,West,263,0.0,0.0,84,0.00,,,0.00,Wunderground v.1.15,2013-04-26 06:05:00,
2013-04-26 02:10:00,65.5,60.5,30.21,West,263,0.0,0.0,84,0.00,,,0.00,Wunderground v.1.15,2013-04-26 06:10:00,
2013-04-26 02:15:00,65.4,60.4,30.21,West,263,0.0,0.0,84,0.00,,,0.00,Wunderground v.1.15,2013-04-26 06:15:00,
2013-04-26 02:20:00,65.2,60.2,30.21,West,263,0.0,0.0,84,0.00,,,0.00,Wunderground v.1.15,2013-04-26 06:20:00,
2013-04-26 02:25:00,65.1,60.1,30.21,West,263,0.0,0.0,84,0.00,,,0.00,Wunderground v.1.15,2013-04-26 06:25:00,
2013-04-26 02:30:00,65.0,60.0,30.20,West,263,0.0,0.0,84,0.00,,,0.00,Wunderground v.1.15,2013-04-26 06:30:00,
2013-04-26 02:35:00,64.9,59.9,30.21,West,263,0.0,0.0,84,0.00,,,0.00,Wunderground v.1.15,2013-04-26 06:35:00,
2013-04-26 02:40:00,64.8,60.2,30.20,West,263,0.0,0.0,85,0.00,,,0.00,Wunderground v.1.15,2013-04-26 06:40:00,
2013-04-26 02:45:00,64.7,60.1,30.20,West,263,0.0,0.0,85,0.00,,,0.00,Wunderground v.1.15,2013-04-26 06:45:00,
2013-04-26 02:55:00,64.4,59.8,30.20,West,263,0.0,0.0,85,0.00,,,0.00,Wunderground v.1.15,2013-04-26 06:55:00,
2013-04-26 03:00:00,64.3,59.7,30.20,West,263,0.0,0.0,85,0.00,,,0.00,Wunderground v.1.15,2013-04-26 07:00:00,
2013-04-26 03:05:00,64.3,59.7,30.20,West,263,0.0,0.0,85,0.00,,,0.00,Wunderground v.1.15,2013-04-26 07:05:00,
2013-04-26 03:10:00,64.2,59.9,30.20,West,263,0.0,0.0,86,0.00,,,0.00,Wunderground v.1.15,2013-04-26 07:10:00,
2013-04-26 03:15:00,64.1,59.8,30.20,West,263,0.0,0.0,86,0.00,,,0.00,Wunderground v.1.15,2013-04-26 07:15:00,
2013-04-26 03:20:00,64.1,60.2,30.20,West,263,0.0,0.0,87,0.00,,,0.00,Wunderground v.1.15,2013-04-26 07:20:00,
2013-04-26 03:25:00,64.3,60.7,30.20,West,263,0.0,0.0,88,0.00,,,0.00,Wunderground v.1.15,2013-04-26 07:25:00,
2013-04-26 03:30:00,64.4,60.8,30.20,West,263,0.0,0.0,88,0.00,,,0.00,Wunderground v.1.15,2013-04-26 07:30:00,
2013-04-26 03:35:00,64.4,60.8,30.20,West,263,0.0,0.0,88,0.00,,,0.00,Wunderground v.1.15,2013-04-26 07:35:00,
2013-04-26 03:40:00,64.4,61.1,30.20,West,263,0.0,0.0,89,0.00,,,0.00,Wunderground v.1.15,2013-04-26 07:40:00,
2013-04-26 03:45:00,64.3,61.0,30.20,West,263,0.0,0.0,89,0.00,,,0.00,Wunderground v.1.15,2013-04-26 07:45:00,
2013-04-26 03:50:00,64.3,61.0,30.20,West,263,0.0,0.0,89,0.00,,,0.00,Wunderground v.1.15,2013-04-26 07:50:00,
2013-04-26 04:00:00,64.1,60.8,30.20,West,263,0.0,0.0,89,0.00,,,0.00,Wunderground v.1.15,2013-04-26 08:00:00,
2013-04-26 04:05:00,64.1,60.8,30.20,West,263,0.0,0.0,89,0.00,,,0.00,Wunderground v.1.15,2013-04-26 08:05:00,
2013-04-26 04:10:00,64.0,61.0,30.20,West,263,0.0,0.0,90,0.00,,,0.00,Wunderground v.1.15,2013-04-26 08:10:00,
2013-04-26 04:20:00,63.8,60.5,30.19,West,263,0.0,0.0,89,0.00,,,0.00,Wunderground v.1.15,2013-04-26 08:20:00,
2013-04-26 04:25:00,63.6,60.3,30.19,West,263,0.0,0.0,89,0.00,,,0.00,Wunderground v.1.15,2013-04-26 08:25:00,
2013-04-26 04:30:00,63.5,60.2,30.20,West,263,0.0,0.0,89,0.00,,,0.00,Wunderground v.1.15,2013-04-26 08:30:00,
2013-04-26 04:35:00,63.3,60.0,30.19,West,263,0.0,0.0,89,0.00,,,0.00,Wunderground v.1.15,2013-04-26 08:35:00,
2013-04-26 04:45:00,63.0,59.7,30.20,West,263,0.0,0.0,89,0.00,,,0.00,Wunderground v.1.15,2013-04-26 08:45:00,
2013-04-26 04:50:00,62.8,59.5,30.20,West,263,0.0,0.0,89,0.00,,,0.00,Wunderground v.1.15,2013-04-26 08:50:00,
2013-04-26 04:55:00,62.7,59.4,30.20,West,263,0.0,0.0,89,0.00,,,0.00,Wunderground v.1.15,2013-04-26 08:55:00,
2013-04-26 05:00:00,62.6,59.6,30.20,West,263,0.0,0.0,90,0.00,,,0.00,Wunderground v.1.15,2013-04-26 09:00:00,
2013-04-26 05:05:00,62.6,59.6,30.20,West,263,0.0,0.0,90,0.00,,,0.00,Wunderground v.1.15,2013-04-26 09:05:00,
2013-04-26 05:15:00,62.5,59.5,30.20,West,263,0.0,0.0,90,0.00,,,0.00,Wunderground v.1.15,2013-04-26 09:15:00,
2013-04-26 05:20:00,62.5,59.5,30.19,West,263,0.0,0.0,90,0.00,,,0.00,Wunderground v.1.15,2013-04-26 09:20:00,
2013-04-26 05:25:00,62.5,59.5,30.20,West,263,0.0,0.0,90,0.00,,,0.00,Wunderground v.1.15,2013-04-26 09:25:00,
2013-04-26 05:30:00,62.4,59.4,30.19,West,263,0.0,0.0,90,0.00,,,0.00,Wunderground v.1.15,2013-04-26 09:30:00,
2013-04-26 05:35:00,62.4,59.7,30.20,West,263,0.0,0.0,91,0.00,,,0.00,Wunderground v.1.15,2013-04-26 09:35:00,
2013-04-26 05:40:00,62.3,59.6,30.19,West,263,0.0,0.0,91,0.00,,,0.00,Wunderground v.1.15,2013-04-26 09:40:00,
2013-04-26 05:45:00,62.2,59.5,30.20,West,263,0.0,0.0,91,0.00,,,0.00,Wunderground v.1.15,2013-04-26 09:45:00,
2013-04-26 05:50:00,62.0,59.3,30.19,West,263,0.0,0.0,91,0.00,,,0.00,Wunderground v.1.15,2013-04-26 09:50:00,
2013-04-26 06:00:00,61.8,58.8,30.20,West,263,0.0,0.0,90,0.00,,,0.00,Wunderground v.1.15,2013-04-26 10:00:00,
2013-04-26 06:05:00,61.7,59.0,30.20,West,263,0.0,0.0,91,0.00,,,0.00,Wunderground v.1.15,2013-04-26 10:05:00,
2013-04-26 06:10:00,61.6,58.9,30.20,West,263,0.0,0.0,91,0.00,,,0.00,Wunderground v.1.15,2013-04-26 10:10:00,
2013-04-26 06:15:00,61.6,58.9,30.20,West,263,0.0,0.0,91,0.00,,,0.00,Wunderground v.1.15,2013-04-26 10:15:00,
2013-04-26 06:20:00,61.5,58.8,30.20,West,263,0.0,0.0,91,0.00,,,0.00,Wunderground v.1.15,2013-04-26 10:20:00,
2013-04-26 06:25:00,61.5,58.8,30.20,West,263,0.0,0.0,91,0.00,,,0.00,Wunderground v.1.15,2013-04-26 10:25:00,
2013-04-26 06:35:00,61.5,58.8,30.20,West,263,0.0,0.0,91,0.00,,,0.00,Wunderground v.1.15,2013-04-26 10:35:00,
2013-04-26 06:45:00,61.4,58.7,30.20,West,263,0.0,0.0,91,0.00,,,0.00,Wunderground v.1.15,2013-04-26 10:45:00,
2013-04-26 06:50:00,61.4,58.7,30.20,West,263,0.0,0.0,91,0.00,,,0.00,Wunderground v.1.15,2013-04-26 10:50:00,
2013-04-26 06:55:00,61.4,58.7,30.21,West,263,0.0,0.0,91,0.00,,,0.00,Wunderground v.1.15,2013-04-26 10:55:00,
2013-04-26 07:00:00,61.4,58.7,30.22,West,263,0.0,0.0,91,0.00,,,0.00,Wunderground v.1.15,2013-04-26 11:00:00,
2013-04-26 07:05:00,61.4,58.7,30.21,West,263,0.0,0.0,91,0.00,,,0.00,Wunderground v.1.15,2013-04-26 11:05:00,
2013-04-26 07:10:00,61.3,58.7,30.22,West,263,0.0,0.0,91,0.00,,,0.00,Wunderground v.1.15,2013-04-26 11:10:00,
2013-04-26 07:20:00,61.2,58.6,30.22,West,263,0.0,0.0,91,0.00,,,0.00,Wunderground v.1.15,2013-04-26 11:20:00,
2013-04-26 07:25:00,61.1,58.5,30.22,West,263,0.0,0.0,91,0.00,,,0.00,Wunderground v.1.15,2013-04-26 11:25:00,
2013-04-26 07:30:00,61.2,58.9,30.22,West,263,0.0,0.0,92,0.00,,,0.00,Wunderground v.1.15,2013-04-26 11:30:00,
2013-04-26 07:35:00,61.2,58.9,30.23,West,263,0.0,0.0,92,0.00,,,0.00,Wunderground v.1.15,2013-04-26 11:35:00,
2013-04-26 07:40:00,61.6,59.3,30.23,WSW,258,0.0,0.0,92,0.00,,,0.00,Wunderground v.1.15,2013-04-26 11:40:00,
2013-04-26 07:50:00,62.0,60.0,30.23,WSW,258,0.0,0.0,93,0.00,,,0.00,Wunderground v.1.15,2013-04-26 11:50:00,
2013-04-26 07:55:00,62.1,60.1,30.23,NE,47,0.0,0.0,93,0.00,,,0.00,Wunderground v.1.15,2013-04-26 11:55:00,
2013-04-26 08:00:00,62.2,60.2,30.24,NE,47,0.0,0.0,93,0.00,,,0.00,Wunderground v.1.15,2013-04-26 12:00:00,
2013-04-26 08:10:00,62.8,61.0,30.24,NE,47,0.0,0.0,94,0.00,,,0.00,Wunderground v.1.15,2013-04-26 12:10:00,
2013-04-26 08:20:00,64.3,62.8,30.25,SE,128,0.0,0.0,95,0.00,,,0.00,Wunderground v.1.15,2013-04-26 12:20:00,
2013-04-26 08:25:00,65.0,63.5,30.24,SE,128,0.0,0.0,95,0.00,,,0.00,Wunderground v.1.15,2013-04-26 12:25:00,
2013-04-26 08:30:00,65.8,64.3,30.25,SE,135,0.0,0.0,95,0.00,,,0.00,Wunderground v.1.15,2013-04-26 12:30:00,
2013-04-26 08:35:00,66.5,65.0,30.25,ESE,115,0.0,0.0,95,0.00,,,0.00,Wunderground v.1.15,2013-04-26 12:35:00,
2013-04-26 08:40:00,67.0,65.5,30.25,ESE,114,0.0,0.0,95,0.00,,,0.00,Wunderground v.1.15,2013-04-26 12:40:00,
2013-04-26 08:50:00,67.9,66.1,30.25,ESE,110,0.0,0.0,94,0.00,,,0.00,Wunderground v.1.15,2013-04-26 12:50:00,
2013-04-26 08:55:00,68.6,66.5,30.25,SE,129,0.0,0.0,93,0.00,,,0.00,Wunderground v.1.15,2013-04-26 12:55:00,
2013-04-26 09:00:00,69.3,66.9,30.26,SSE,160,0.0,0.0,92,0.00,,,0.00,Wunderground v.1.15,2013-04-26 13:00:00,
2013-04-26 09:05:00,70.1,67.0,30.26,SSE,160,0.0,0.0,90,0.00,,,0.00,Wunderground v.1.15,2013-04-26 13:05:00,
2013-04-26 09:10:00,70.8,67.1,30.26,South,191,1.0,3.0,88,0.00,,,0.00,Wunderground v.1.15,2013-04-26 13:10:00,
2013-04-26 09:15:00,71.6,67.2,30.26,South,191,1.0,3.0,86,0.00,,,0.00,Wunderground v.1.15,2013-04-26 13:15:00,
2013-04-26 09:20:00,72.2,66.7,30.27,South,191,0.0,0.0,83,0.00,,,0.00,Wunderground v.1.15,2013-04-26 13:20:00,
2013-04-26 09:30:00,73.5,66.9,30.27,South,185,0.0,1.0,80,0.00,,,0.00,Wunderground v.1.15,2013-04-26 13:30:00,
2013-04-26 09:35:00,74.4,67.1,30.27,SE,132,0.0,1.0,78,0.00,,,0.00,Wunderground v.1.15,2013-04-26 13:35:00,
2013-04-26 09:40:00,75.1,67.0,30.27,SE,132,1.0,1.0,76,0.00,,,0.00,Wunderground v.1.15,2013-04-26 13:40:00,
2013-04-26 09:45:00,75.8,66.9,30.27,SE,132,0.0,1.0,74,0.00,,,0.00,Wunderground v.1.15,2013-04-26 13:45:00,
2013-04-26 09:50:00,76.3,66.6,30.27,SE,132,0.0,0.0,72,0.00,,,0.00,Wunderground v.1.15,2013-04-26 13:50:00,
2013-04-26 10:00:00,77.5,66.5,30.27,East,99,1.0,4.0,69,0.00,,,0.00,Wunderground v.1.15,2013-04-26 14:00:00,
2013-04-26 10:10:00,77.8,66.4,30.28,East,94,2.0,2.0,68,0.00,,,0.00,Wunderground v.1.15,2013-04-26 14:10:00,
2013-04-26 10:15:00,78.2,66.8,30.28,East,94,1.0,2.0,68,0.00,,,0.00,Wunderground v.1.15,2013-04-26 14:15:00,
2013-04-26 10:20:00,78.7,67.2,30.28,ESE,111,0.0,4.0,68,0.00,,,0.00,Wunderground v.1.15,2013-04-26 14:20:00,
2013-04-26 10:25:00,78.8,66.5,30.28,SSE,152,1.0,4.0,66,0.00,,,0.00,Wunderground v.1.15,2013-04-26 14:25:00,
2013-04-26 10:30:00,79.0,66.7,30.28,SE,127,1.0,1.0,66,0.00,,,0.00,Wunderground v.1.15,2013-04-26 14:30:00,
2013-04-26 10:35:00,79.3,66.1,30.28,SSE,147,1.0,1.0,64,0.00,,,0.00,Wunderground v.1.15,2013-04-26 14:35:00,
2013-04-26 10:40:00,79.4,65.7,30.28,SW,231,2.0,2.0,63,0.00,,,0.00,Wunderground v.1.15,2013-04-26 14:40:00,
2013-04-26 10:45:00,79.3,66.1,30.28,SSW,200,2.0,2.0,64,0.00,,,0.00,Wunderground v.1.15,2013-04-26 14:45:00,
2013-04-26 10:50:00,80.0,66.7,30.28,WNW,295,1.0,1.0,64,0.00,,,0.00,Wunderground v.1.15,2013-04-26 14:50:00,
2013-04-26 10:55:00,80.3,66.1,30.29,SSW,199,2.0,2.0,62,0.00,,,0.00,Wunderground v.1.15,2013-04-26 14:55:00,
2013-04-26 11:00:00,80.7,65.5,30.28,West,268,2.0,2.0,60,0.00,,,0.00,Wunderground v.1.15,2013-04-26 15:00:00,
2013-04-26 11:05:00,81.2,66.5,30.29,SW,233,1.0,2.0,61,0.00,,,0.00,Wunderground v.1.15,2013-04-26 15:05:00,
2013-04-26 11:10:00,81.4,65.2,30.29,West,278,1.0,4.0,58,0.00,,,0.00,Wunderground v.1.15,2013-04-26 15:10:00,
2013-04-26 11:15:00,81.4,65.7,30.29,WSW,253,1.0,4.0,59,0.00,,,0.00,Wunderground v.1.15,2013-04-26 15:15:00,
2013-04-26 11:20:00,81.6,65.4,30.28,SSW,202,2.0,4.0,58,0.00,,,0.00,Wunderground v.1.15,2013-04-26 15:20:00,
2013-04-26 11:25:00,81.4,64.7,30.28,SSW,193,3.0,4.0,57,0.00,,,0.00,Wunderground v.1.15,2013-04-26 15:25:00,
2013-04-26 11:30:00,81.6,65.4,30.28,SW,224,2.0,5.0,58,0.00,,,0.00,Wunderground v.1.15,2013-04-26 15:30:00,
2013-04-26 11:35:00,81.8,65.1,30.28,WSW,237,2.0,5.0,57,0.00,,,0.00,Wunderground v.1.15,2013-04-26 15:35:00,
2013-04-26 11:40:00,82.0,65.8,30.28,WSW,254,2.0,6.0,58,0.00,,,0.00,Wunderground v.1.15,2013-04-26 15:40:00,
2013-04-26 11:45:00,81.8,65.6,30.28,South,189,3.0,6.0,58,0.00,,,0.00,Wunderground v.1.15,2013-04-26 15:45:00,
2013-04-26 11:50:00,82.3,66.0,30.28,WSW,238,2.0,2.0,58,0.00,,,0.00,Wunderground v.1.15,2013-04-26 15:50:00,
2013-04-26 11:55:00,83.0,66.7,30.28,SSW,202,1.0,2.0,58,0.00,,,0.00,Wunderground v.1.15,2013-04-26 15:55:00,
2013-04-26 12:00:00,83.3,66.0,30.28,NNW,343,2.0,2.0,56,0.00,,,0.00,Wunderground v.1.15,2013-04-26 16:00:00,
2013-04-26 12:05:00,83.4,66.1,30.28,SSE,157,2.0,2.0,56,0.00,,,0.00,Wunderground v.1.15,2013-04-26 16:05:00,
2013-04-26 12:10:00,83.4,66.6,30.27,WNW,289,2.0,2.0,57,0.00,,,0.00,Wunderground v.1.15,2013-04-26 16:10:00,
2013-04-26 12:15:00,84.1,67.2,30.27,SSW,193,1.0,2.0,57,0.00,,,0.00,Wunderground v.1.15,2013-04-26 16:15:00,
2013-04-26 12:20:00,84.3,66.4,30.27,ESE,120,1.0,6.0,55,0.00,,,0.00,Wunderground v.1.15,2013-04-26 16:20:00,
2013-04-26 12:25:00,83.7,65.8,30.27,South,185,2.0,6.0,55,0.00,,,0.00,Wunderground v.1.15,2013-04-26 16:25:00,
2013-04-26 12:35:00,83.9,66.5,30.27,WSW,249,1.0,4.0,56,0.00,,,0.00,Wunderground v.1.15,2013-04-26 16:35:00,
2013-04-26 12:40:00,84.2,65.8,30.26,SSW,209,2.0,2.0,54,0.00,,,0.00,Wunderground v.1.15,2013-04-26 16:40:00,
2013-04-26 12:45:00,84.3,65.8,30.26,SSE,150,2.0,2.0,54,0.00,,,0.00,Wunderground v.1.15,2013-04-26 16:45:00,
2013-04-26 12:50:00,84.3,66.4,30.26,West,274,2.0,2.0,55,0.00,,,0.00,Wunderground v.1.15,2013-04-26 16:50:00,
2013-04-26 12:55:00,84.9,66.4,30.26,WSW,251,1.0,2.0,54,0.00,,,0.00,Wunderground v.1.15,2013-04-26 16:55:00,
2013-04-26 13:00:00,85.1,66.0,30.26,SW,227,1.0,1.0,53,0.00,,,0.00,Wunderground v.1.15,2013-04-26 17:00:00,
2013-04-26 13:05:00,85.3,66.2,30.26,SSW,193,2.0,2.0,53,0.00,,,0.00,Wunderground v.1.15,2013-04-26 17:05:00,
2013-04-26 13:10:00,85.7,66.6,30.26,SSE,158,1.0,1.0,53,0.00,,,0.00,Wunderground v.1.15,2013-04-26 17:10:00,
2013-04-26 13:15:00,85.8,66.7,30.25,WSW,247,3.0,3.0,53,0.00,,,0.00,Wunderground v.1.15,2013-04-26 17:15:00,
2013-04-26 13:25:00,86.1,65.9,30.25,WSW,246,2.0,3.0,51,0.00,,,0.00,Wunderground v.1.15,2013-04-26 17:25:00,
2013-04-26 13:30:00,85.9,65.1,30.25,WSW,238,3.0,5.0,50,0.00,,,0.00,Wunderground v.1.15,2013-04-26 17:30:00,
2013-04-26 13:35:00,85.8,66.7,30.25,SSW,193,4.0,5.0,53,0.00,,,0.00,Wunderground v.1.15,2013-04-26 17:35:00,
2013-04-26 13:40:00,86.1,66.4,30.25,South,185,4.0,4.0,52,0.00,,,0.00,Wunderground v.1.15,2013-04-26 17:40:00,
2013-04-26 13:50:00,86.7,65.3,30.25,WSW,250,2.0,2.0,49,0.00,,,0.00,Wunderground v.1.15,2013-04-26 17:50:00,
2013-04-26 14:00:00,87.3,65.2,30.25,SSW,196,1.0,1.0,48,0.00,,,0.00,Wunderground v.1.15,2013-04-26 18:00:00,
2013-04-26 14:05:00,86.7,64.7,30.25,SSW,199,1.0,2.0,48,0.00,,,0.00,Wunderground v.1.15,2013-04-26 18:05:00,
2013-04-26 14:10:00,86.6,65.7,30.24,WSW,250,2.0,4.0,50,0.00,,,0.00,Wunderground v.1.15,2013-04-26 18:10:00,
2013-04-26 14:15:00,86.9,65.4,30.24,SSW,204,3.0,4.0,49,0.00,,,0.00,Wunderground v.1.15,2013-04-26 18:15:00,
2013-04-26 14:25:00,87.1,65.6,30.24,SW,214,4.0,6.0,49,0.00,,,0.00,Wunderground v.1.15,2013-04-26 18:25:00,
2013-04-26 14:30:00,87.0,65.5,30.24,SW,228,5.0,5.0,49,0.00,,,0.00,Wunderground v.1.15,2013-04-26 18:30:00,
2013-04-26 14:35:00,87.0,65.5,30.24,WSW,241,5.0,5.0,49,0.00,,,0.00,Wunderground v.1.15,2013-04-26 18:35:00,
2013-04-26 14:40:00,87.1,65.0,30.23,SSW,193,4.0,6.0,48,0.00,,,0.00,Wunderground v.1.15,2013-04-26 18:40:00,
2013-04-26 14:45:00,87.2,64.5,30.23,South,175,4.0,6.0,47,0.00,,,0.00,Wunderground v.1.15,2013-04-26 18:45:00,
2013-04-26 14:50:00,87.3,65.2,30.23,South,189,5.0,5.0,48,0.00,,,0.00,Wunderground v.1.15,2013-04-26 18:50:00,
2013-04-26 15:00:00,87.2,64.5,30.23,SSW,212,5.0,5.0,47,0.00,,,0.00,Wunderground v.1.15,2013-04-26 19:00:00,
2013-04-26 15:05:00,87.2,64.5,30.23,SSW,212,5.0,5.0,47,0.00,,,0.00,Wunderground v.1.15,2013-04-26 19:05:00,
2013-04-26 15:10:00,87.0,64.3,30.23,SW,234,4.0,4.0,47,0.00,,,0.00,Wunderground v.1.15,2013-04-26 19:10:00,
2013-04-26 15:20:00,87.5,64.2,30.23,South,185,5.0,5.0,46,0.00,,,0.00,Wunderground v.1.15,2013-04-26 19:20:00,
2013-04-26 15:25:00,86.9,64.2,30.23,South,185,5.0,5.0,47,0.00,,,0.00,Wunderground v.1.15,2013-04-26 19:25:00,
2013-04-26 15:30:00,86.9,63.6,30.22,South,185,2.0,2.0,46,0.00,,,0.00,Wunderground v.1.15,2013-04-26 19:30:00,
2013-04-26 15:35:00,87.0,64.3,30.22,SSE,163,3.0,9.0,47,0.00,,,0.00,Wunderground v.1.15,2013-04-26 19:35:00,
2013-04-26 15:40:00,86.8,64.2,30.22,WSW,249,5.0,5.0,47,0.00,,,0.00,Wunderground v.1.15,2013-04-26 19:40:00,
2013-04-26 15:45:00,87.1,63.8,30.22,South,185,4.0,5.0,46,0.00,,,0.00,Wunderground v.1.15,2013-04-26 19:45:00,
2013-04-26 15:50:00,87.7,65.6,30.21,SSW,212,2.0,2.0,48,0.00,,,0.00,Wunderground v.1.15,2013-04-26 19:50:00,
2013-04-26 15:55:00,88.4,64.4,30.21,South,191,2.0,5.0,45,0.00,,,0.00,Wunderground v.1.15,2013-04-26 19:55:00,
2013-04-26 16:00:00,88.3,63.0,30.21,WSW,247,3.0,3.0,43,0.00,,,0.00,Wunderground v.1.15,2013-04-26 20:00:00,
2013-04-26 16:05:00,87.7,63.1,30.21,SSW,196,3.0,4.0,44,0.00,,,0.00,Wunderground v.1.15,2013-04-26 20:05:00,
2013-04-26 16:10:00,87.6,63.6,30.20,SSW,199,3.0,3.0,45,0.00,,,0.00,Wunderground v.1.15,2013-04-26 20:10:00,
2013-04-26 16:15:00,87.2,63.9,30.21,South,185,4.0,4.0,46,0.00,,,0.00,Wunderground v.1.15,2013-04-26 20:15:00,
2013-04-26 16:25:00,85.9,64.5,30.22,SW,221,2.0,4.0,49,0.00,,,0.00,Wunderground v.1.15,2013-04-26 20:25:00,
2013-04-26 16:30:00,85.8,63.8,30.21,SSW,199,1.0,5.0,48,0.00,,,0.00,Wunderground v.1.15,2013-04-26 20:30:00,
2013-04-26 16:40:00,85.4,64.6,30.21,SSW,192,3.0,4.0,50,0.00,,,0.00,Wunderground v.1.15,2013-04-26 20:40:00,
2013-04-26 16:45:00,85.1,63.8,30.21,SSW,205,3.0,4.0,49,0.00,,,0.00,Wunderground v.1.15,2013-04-26 20:45:00,
2013-04-26 16:50:00,85.0,63.1,30.21,SSW,206,1.0,1.0,48,0.00,,,0.00,Wunderground v.1.15,2013-04-26 20:50:00,
2013-04-26 16:55:00,85.4,64.1,30.21,SSW,210,0.0,6.0,49,0.00,,,0.00,Wunderground v.1.15,2013-04-26 20:55:00,
2013-04-26 17:00:00,85.7,65.5,30.20,SSW,204,1.0,1.0,51,0.00,,,0.00,Wunderground v.1.15,2013-04-26 21:00:00,
2013-04-26 17:05:00,86.1,65.3,30.20,SW,228,1.0,1.0,50,0.00,,,0.00,Wunderground v.1.15,2013-04-26 21:05:00,
2013-04-26 17:10:00,86.7,65.3,30.21,SSW,195,2.0,3.0,49,0.00,,,0.00,Wunderground v.1.15,2013-04-26 21:10:00,
2013-04-26 17:20:00,86.5,65.1,30.21,South,169,3.0,7.0,49,0.00,,,0.00,Wunderground v.1.15,2013-04-26 21:20:00,
2013-04-26 17:25:00,86.4,65.6,30.20,WNW,300,3.0,7.0,50,0.00,,,0.00,Wunderground v.1.15,2013-04-26 21:25:00,
2013-04-26 17:30:00,86.3,64.9,30.21,WSW,245,2.0,7.0,49,0.00,,,0.00,Wunderground v.1.15,2013-04-26 21:30:00,
2013-04-26 17:35:00,85.7,64.9,30.21,SW,228,1.0,7.0,50,0.00,,,0.00,Wunderground v.1.15,2013-04-26 21:35:00,
2013-04-26 17:40:00,85.0,65.4,30.21,SW,234,1.0,7.0,52,0.00,,,0.00,Wunderground v.1.15,2013-04-26 21:40:00,
2013-04-26 17:50:00,83.8,65.4,30.21,WSW,244,1.0,2.0,54,0.00,,,0.00,Wunderground v.1.15,2013-04-26 21:50:00,
2013-04-26 17:55:00,83.2,65.9,30.21,South,185,2.0,8.0,56,0.00,,,0.00,Wunderground v.1.15,2013-04-26 21:55:00,
2013-04-26 18:00:00,82.7,65.9,30.22,South,180,3.0,3.0,57,0.00,,,0.00,Wunderground v.1.15,2013-04-26 22:00:00,
2013-04-26 18:05:00,82.0,65.8,30.22,SSW,212,3.0,5.0,58,0.00,,,0.00,Wunderground v.1.15,2013-04-26 22:05:00,
2013-04-26 18:15:00,81.0,65.3,30.22,West,270,2.0,4.0,59,0.00,,,0.00,Wunderground v.1.15,2013-04-26 22:15:00,
2013-04-26 18:20:00,80.7,65.5,30.22,South,180,2.0,3.0,60,0.00,,,0.00,Wunderground v.1.15,2013-04-26 22:20:00,
2013-04-26 18:25:00,80.5,65.8,30.22,SSW,204,3.0,5.0,61,0.00,,,0.00,Wunderground v.1.15,2013-04-26 22:25:00,
2013-04-26 18:30:00,80.2,66.0,30.22,SSW,195,3.0,9.0,62,0.00,,,0.00,Wunderground v.1.15,2013-04-26 22:30:00,
2013-04-26 18:35:00,80.0,66.3,30.22,SSW,202,3.0,9.0,63,0.00,,,0.00,Wunderground v.1.15,2013-04-26 22:35:00,
2013-04-26 18:40:00,79.9,66.2,30.22,SSW,197,3.0,3.0,63,0.00,,,0.00,Wunderground v.1.15,2013-04-26 22:40:00,
2013-04-26 18:45:00,79.7,66.0,30.22,SW,214,2.0,3.0,63,0.00,,,0.00,Wunderground v.1.15,2013-04-26 22:45:00,
2013-04-26 18:50:00,79.5,66.3,30.22,South,180,1.0,1.0,64,0.00,,,0.00,Wunderground v.1.15,2013-04-26 22:50:00,
2013-04-26 18:55:00,79.4,66.2,30.22,South,185,1.0,1.0,64,0.00,,,0.00,Wunderground v.1.15,2013-04-26 22:55:00,
2013-04-26 19:00:00,79.4,66.2,30.22,WSW,241,2.0,5.0,64,0.00,,,0.00,Wunderground v.1.15,2013-04-26 23:00:00,
2013-04-26 19:05:00,79.4,66.2,30.22,South,175,3.0,5.0,64,0.00,,,0.00,Wunderground v.1.15,2013-04-26 23:05:00,
2013-04-26 19:10:00,79.4,66.2,30.22,NW,314,2.0,2.0,64,0.00,,,0.00,Wunderground v.1.15,2013-04-26 23:10:00,
2013-04-26 19:15:00,79.2,66.0,30.23,WSW,240,3.0,7.0,64,0.00,,,0.00,Wunderground v.1.15,2013-04-26 23:15:00,
2013-04-26 19:20:00,78.9,66.1,30.22,SSW,211,3.0,3.0,65,0.00,,,0.00,Wunderground v.1.15,2013-04-26 23:20:00,
2013-04-26 19:25:00,78.5,65.8,30.22,SW,215,3.0,3.0,65,0.00,,,0.00,Wunderground v.1.15,2013-04-26 23:25:00,
2013-04-26 19:35:00,78.0,65.7,30.23,SW,231,1.0,2.0,66,0.00,,,0.00,Wunderground v.1.15,2013-04-26 23:35:00,
2013-04-26 19:40:00,77.7,65.9,30.23,WSW,239,1.0,1.0,67,0.00,,,0.00,Wunderground v.1.15,2013-04-26 23:40:00,
2013-04-26 19:45:00,77.5,65.7,30.23,WSW,245,0.0,1.0,67,0.00,,,0.00,Wunderground v.1.15,2013-04-26 23:45:00,
2013-04-26 19:50:00,77.2,65.4,30.23,SSW,206,1.0,3.0,67,0.00,,,0.00,Wunderground v.1.15,2013-04-26 23:50:00,
2013-04-26 20:10:00,76.2,65.3,30.23,SSW,195,1.0,1.0,69,0.00,,,0.00,Wunderground v.1.15,2013-04-27 00:10:00,
2013-04-26 20:15:00,75.9,65.0,30.23,WNW,283,1.0,1.0,69,0.00,,,0.00,Wunderground v.1.15,2013-04-27 00:15:00,
2013-04-26 20:20:00,75.6,65.1,30.24,SW,226,1.0,1.0,70,0.00,,,0.00,Wunderground v.1.15,2013-04-27 00:20:00,
2013-04-26 20:25:00,75.4,64.9,30.24,SW,233,1.0,1.0,70,0.00,,,0.00,Wunderground v.1.15,2013-04-27 00:25:00,
2013-04-26 20:30:00,75.1,65.1,30.24,SW,233,0.0,6.0,71,0.00,,,0.00,Wunderground v.1.15,2013-04-27 00:30:00,
2013-04-26 20:40:00,74.6,64.6,30.24,SW,221,1.0,1.0,71,0.00,,,0.00,Wunderground v.1.15,2013-04-27 00:40:00,
2013-04-26 20:45:00,74.4,64.8,30.24,SSW,212,0.0,1.0,72,0.00,,,0.00,Wunderground v.1.15,2013-04-27 00:45:00,
2013-04-26 20:50:00,74.3,64.7,30.24,SW,219,0.0,2.0,72,0.00,,,0.00,Wunderground v.1.15,2013-04-27 00:50:00,
2013-04-26 20:55:00,74.1,64.9,30.24,SW,220,0.0,2.0,73,0.00,,,0.00,Wunderground v.1.15,2013-04-27 00:55:00,
2013-04-26 21:00:00,73.9,64.7,30.25,WSW,247,1.0,1.0,73,0.00,,,0.00,Wunderground v.1.15,2013-04-27 01:00:00,
2013-04-26 21:10:00,73.5,65.1,30.25,SW,220,1.0,1.0,75,0.00,,,0.00,Wunderground v.1.15,2013-04-27 01:10:00,
2013-04-26 21:15:00,73.3,65.3,30.25,SW,215,1.0,1.0,76,0.00,,,0.00,Wunderground v.1.15,2013-04-27 01:15:00,
2013-04-26 21:20:00,73.1,65.1,30.26,SW,215,0.0,0.0,76,0.00,,,0.00,Wunderground v.1.15,2013-04-27 01:20:00,
2013-04-26 21:25:00,72.9,65.3,30.26,SW,214,0.0,0.0,77,0.00,,,0.00,Wunderground v.1.15,2013-04-27 01:25:00,
2013-04-26 21:30:00,72.7,65.1,30.26,SW,214,0.0,0.0,77,0.00,,,0.00,Wunderground v.1.15,2013-04-27 01:30:00,
2013-04-26 21:35:00,72.5,65.2,30.26,SW,214,0.0,0.0,78,0.00,,,0.00,Wunderground v.1.15,2013-04-27 01:35:00,
2013-04-26 21:40:00,72.3,65.1,30.26,SW,214,0.0,0.0,78,0.00,,,0.00,Wunderground v.1.15,2013-04-27 01:40:00,
2013-04-26 21:45:00,72.1,65.2,30.27,SSW,210,0.0,2.0,79,0.00,,,0.00,Wunderground v.1.15,2013-04-27 01:45:00,
2013-04-26 21:50:00,72.0,65.1,30.27,SSW,205,0.0,0.0,79,0.00,,,0.00,Wunderground v.1.15,2013-04-27 01:50:00,
2013-04-26 21:55:00,71.7,64.8,30.27,SSW,205,0.0,0.0,79,0.00,,,0.00,Wunderground v.1.15,2013-04-27 01:55:00,
2013-04-26 22:05:00,71.4,65.3,30.27,SSW,205,0.0,0.0,81,0.00,,,0.00,Wunderground v.1.15,2013-04-27 02:05:00,
2013-04-26 22:10:00,71.2,65.1,30.27,SSW,205,0.0,0.0,81,0.00,,,0.00,Wunderground v.1.15,2013-04-27 02:10:00,
2013-04-26 22:15:00,71.1,65.0,30.28,SSW,205,0.0,0.0,81,0.00,,,0.00,Wunderground v.1.15,2013-04-27 02:15:00,
2013-04-26 22:20:00,70.9,65.1,30.28,SSW,205,0.0,0.0,82,0.00,,,0.00,Wunderground v.1.15,2013-04-27 02:20:00,
2013-04-26 22:25:00,70.8,65.0,30.28,SSW,198,0.0,0.0,82,0.00,,,0.00,Wunderground v.1.15,2013-04-27 02:25:00,
2013-04-26 22:30:00,70.7,64.9,30.28,SSW,200,1.0,1.0,82,0.00,,,0.00,Wunderground v.1.15,2013-04-27 02:30:00,
2013-04-26 22:35:00,70.6,65.2,30.28,SSW,200,1.0,1.0,83,0.00,,,0.00,Wunderground v.1.15,2013-04-27 02:35:00,
2013-04-26 22:45:00,70.4,65.0,30.28,SSW,200,0.0,1.0,83,0.00,,,0.00,Wunderground v.1.15,2013-04-27 02:45:00,
2013-04-26 22:50:00,70.3,65.2,30.28,SSW,200,0.0,0.0,84,0.00,,,0.00,Wunderground v.1.15,2013-04-27 02:50:00,
2013-04-26 22:55:00,70.2,65.1,30.28,SSW,200,0.0,0.0,84,0.00,,,0.00,Wunderground v.1.15,2013-04-27 02:55:00,
2013-04-26 23:00:00,70.1,65.0,30.28,SSW,200,0.0,0.0,84,0.00,,,0.00,Wunderground v.1.15,2013-04-27 03:00:00,
2013-04-26 23:05:00,70.0,65.3,30.28,SSW,200,0.0,0.0,85,0.00,,,0.00,Wunderground v.1.15,2013-04-27 03:05:00,
2013-04-26 23:10:00,69.9,65.2,30.28,SSW,201,1.0,1.0,85,0.00,,,0.00,Wunderground v.1.15,2013-04-27 03:10:00,
2013-04-26 23:15:00,69.8,65.1,30.28,SSW,199,2.0,2.0,85,0.00,,,0.00,Wunderground v.1.15,2013-04-27 03:15:00,
2013-04-26 23:20:00,69.7,65.0,30.28,SSW,200,1.0,4.0,85,0.00,,,0.00,Wunderground v.1.15,2013-04-27 03:20:00,
2013-04-26 23:25:00,69.6,65.2,30.28,SSW,197,1.0,4.0,86,0.00,,,0.00,Wunderground v.1.15,2013-04-27 03:25:00,
2013-04-26 23:30:00,69.5,65.1,30.28,SSW,206,1.0,1.0,86,0.00,,,0.00,Wunderground v.1.15,2013-04-27 03:30:00,
2013-04-26 23:35:00,69.5,65.5,30.28,SSW,195,0.0,1.0,87,0.00,,,0.00,Wunderground v.1.15,2013-04-27 03:35:00,
2013-04-26 23:45:00,69.3,65.3,30.28,SSW,202,0.0,0.0,87,0.00,,,0.00,Wunderground v.1.15,2013-04-27 03:45:00,
2013-04-26 23:50:00,69.3,65.6,30.27,SSW,202,0.0,0.0,88,0.00,,,0.00,Wunderground v.1.15,2013-04-27 03:50:00,
2013-04-26 23:55:00,69.2,65.5,30.27,South,180,0.0,5.0,88,0.00,,,0.00,Wunderground v.1.15,2013-04-27 03:55:00,